Accueil
METAR-TAF:

METAR-TAF

Aéroports :

Colmenar Viejo, Espagne

latitude: 40-39N, longitude: 003-44W, altitude: -999 m

Observation

Le bulletin a été fait il y a 3 heures et 30 minutes, à 18:00 UTC
Vent 3 kt de sud/sud-est
Température 14°C
Humidité 31%
Pression 1029 hPa
Visibilité 10 km ou plus
pas de nuages en-dessous de 1500 mètres et pas de cumulonimbus.

METAR: LECV 211800Z 16003KT CAVOK 14/M03 Q1029

Heure: 22:30 (21:30 UTC)

Prévision

Le bulletin a été fait il y a 4 heures et 30 minutes, à 17:00 UTC
Prévision valable du 21 à 18 UTC au 22 à 03 UTC
Vent 4 kt de direction variable
Visibilité 10 km ou plus
pas de nuages en-dessous de 1500 mètres et pas de cumulonimbus.
Temporairement
du 21 à 19 UTC au 21 à 23 UTC
Vent 5 kt de sud/sud-est

TAF: LECV 211700Z 2118/2203 VRB04KT CAVOK TEMPO 2119/2123 16005KT

Observations et prévisions météorologiques de plus de 4000 aéroports (messages METAR et TAF).

Les stations disponibles sont représentées par des disques jaunes et rouges sur la carte.

Passer la souris dessus pour voir le nom de la station.

Cliquer dessus pour voir les observations et prévisions météorologiques.

Pour changer de carte: cliquez sur les boutons verts avec une croix noire pour zoomer, sur le bouton vert avec un tiret pour effectuer un zoom arrière, ou sur les flèches vertes pour les cartes adjacentes.


METAR-TAF: